createdAt,value
2023-01-06T00:01:20.145Z,95583.03
2023-01-06T00:03:50.557Z,95603.63
2023-01-06T00:06:19.567Z,95604.09
2023-01-06T00:08:49.231Z,95601.53
2023-01-06T00:11:18.741Z,95629.28
2023-01-06T00:13:47.127Z,95632.00
2023-01-06T00:16:17.048Z,95632.00
2023-01-06T00:18:45.663Z,95622.00
2023-01-06T00:21:15.665Z,95626.41
2023-01-06T00:23:44.216Z,95618.81
2023-01-06T00:26:14.095Z,95610.31
2023-01-06T00:28:42.453Z,95604.03
2023-01-06T00:31:12.637Z,95598.44
2023-01-06T00:33:40.993Z,95548.16
2023-01-06T00:36:10.700Z,95510.16
2023-01-06T00:38:39.699Z,95535.66
2023-01-06T00:41:29.479Z,95525.13
2023-01-06T00:44:00.153Z,95549.38
2023-01-06T00:46:29.966Z,95597.72
2023-01-06T00:49:07.331Z,95598.06
2023-01-06T00:51:37.247Z,95616.53
2023-01-06T00:54:06.082Z,95623.88
2023-01-06T00:56:36.690Z,95622.50
2023-01-06T00:59:07.146Z,95572.94
2023-01-06T01:01:36.143Z,95638.03
2023-01-06T01:04:04.879Z,95644.75
2023-01-06T01:06:33.850Z,95642.81
2023-01-06T01:09:02.684Z,95576.44
2023-01-06T01:11:48.592Z,95642.03
2023-01-06T01:14:19.836Z,95636.38
2023-01-06T01:16:48.720Z,95660.78
2023-01-06T01:19:17.212Z,95655.91
2023-01-06T01:21:45.524Z,95663.56
2023-01-06T01:24:13.825Z,95653.38
2023-01-06T01:26:42.298Z,95659.03
2023-01-06T01:29:13.130Z,95615.63
2023-01-06T01:31:43.103Z,95644.06
2023-01-06T01:34:12.998Z,95644.56
2023-01-06T01:36:42.053Z,95643.44
2023-01-06T01:39:11.984Z,95645.50
2023-01-06T01:41:40.389Z,95648.56
2023-01-06T01:44:41.737Z,95636.78
2023-01-06T01:47:13.222Z,95640.47
2023-01-06T01:49:43.715Z,95646.06
2023-01-06T01:52:13.198Z,95651.09
2023-01-06T01:54:42.432Z,95644.78
2023-01-06T01:57:14.398Z,95616.59
2023-01-06T01:59:44.425Z,95673.97
2023-01-06T02:02:16.107Z,95644.97
2023-01-06T02:04:50.390Z,95659.75
2023-01-06T02:07:19.361Z,95667.69
2023-01-06T02:09:57.421Z,95651.03
2023-01-06T02:12:25.696Z,95659.91
2023-01-06T02:14:53.991Z,95656.03
2023-01-06T02:17:48.446Z,95659.91
2023-01-06T02:20:38.165Z,95656.06
2023-01-06T02:23:52.712Z,95648.28
2023-01-06T02:27:02.537Z,95647.03
2023-01-06T02:30:12.355Z,95642.75
2023-01-06T02:32:52.529Z,95639.72
2023-01-06T02:35:39.888Z,95639.97
2023-01-06T02:38:18.600Z,95645.97
2023-01-06T02:41:02.243Z,95651.16
2023-01-06T02:43:39.950Z,95662.75
2023-01-06T02:46:14.569Z,95652.88
2023-01-06T02:48:57.279Z,95649.47
2023-01-06T02:51:33.369Z,95672.81
2023-01-06T02:54:10.202Z,95677.59
2023-01-06T02:56:43.956Z,95673.91
2023-01-06T02:59:19.262Z,95677.84
2023-01-06T03:01:49.608Z,95685.47
2023-01-06T03:04:25.078Z,95671.84
2023-01-06T03:06:56.236Z,95679.56
2023-01-06T03:09:29.352Z,95686.94
2023-01-06T03:11:57.629Z,95690.78
2023-01-06T03:14:32.053Z,95695.44
2023-01-06T03:17:00.882Z,95683.59
2023-01-06T03:19:30.812Z,95679.94
2023-01-06T03:21:59.965Z,95679.53
2023-01-06T03:24:28.556Z,95674.50
2023-01-06T03:26:57.033Z,95665.75
2023-01-06T03:29:26.134Z,95666.91
2023-01-06T03:32:03.034Z,95607.88
2023-01-06T03:34:51.866Z,95667.72
2023-01-06T03:37:27.631Z,95688.16
2023-01-06T03:40:02.199Z,95679.38
2023-01-06T03:42:54.885Z,95627.47
2023-01-06T03:45:40.208Z,95670.47
2023-01-06T03:48:15.469Z,95676.59
2023-01-06T03:50:50.665Z,95676.72
2023-01-06T03:53:26.588Z,95654.47
2023-01-06T03:56:01.202Z,95682.53
2023-01-06T03:58:30.971Z,95675.28
2023-01-06T04:01:00.391Z,95679.97
2023-01-06T04:03:28.819Z,95699.03
2023-01-06T04:05:58.676Z,95640.47
2023-01-06T04:08:27.504Z,95706.75
2023-01-06T04:10:55.827Z,95711.84
2023-01-06T04:13:23.056Z,95713.06
2023-01-06T04:15:51.330Z,95710.63
2023-01-06T04:18:19.636Z,95698.28
2023-01-06T04:20:48.423Z,95700.59
2023-01-06T04:23:18.141Z,95713.13
2023-01-06T04:25:46.502Z,95711.13
2023-01-06T04:28:14.782Z,95713.06
2023-01-06T04:30:43.065Z,95713.38
2023-01-06T04:33:11.617Z,95723.00
2023-01-06T04:35:39.904Z,95723.19
2023-01-06T04:38:08.256Z,95722.00
2023-01-06T04:40:37.975Z,95740.25
2023-01-06T04:43:06.357Z,95748.06
2023-01-06T04:45:35.473Z,95748.97
2023-01-06T04:48:03.951Z,95743.56
2023-01-06T04:50:32.337Z,95752.50
2023-01-06T04:53:00.642Z,95756.44
2023-01-06T04:55:29.247Z,95743.34
2023-01-06T04:57:58.891Z,95726.91
2023-01-06T05:00:27.223Z,95755.72
2023-01-06T05:02:55.588Z,95752.47
2023-01-06T05:05:23.965Z,95750.47
2023-01-06T05:07:55.635Z,95734.72
2023-01-06T05:10:23.969Z,95719.84
2023-01-06T05:12:52.317Z,95735.41
2023-01-06T05:15:22.066Z,95723.91
2023-01-06T05:17:50.355Z,95727.94
2023-01-06T05:20:18.800Z,95722.03
2023-01-06T05:22:47.107Z,95729.47
2023-01-06T05:25:15.531Z,95735.28
2023-01-06T05:27:43.797Z,95740.56
2023-01-06T05:30:13.491Z,95744.13
2023-01-06T05:32:43.110Z,95757.78
2023-01-06T05:35:11.611Z,95769.09
2023-01-06T05:37:39.900Z,95767.41
2023-01-06T05:40:09.295Z,95762.69
2023-01-06T05:42:37.635Z,95767.56
2023-01-06T05:45:06.699Z,95762.28
2023-01-06T05:47:34.961Z,95736.94
2023-01-06T05:50:04.953Z,95773.38
2023-01-06T05:52:33.300Z,95785.13
2023-01-06T05:55:01.564Z,95750.22
2023-01-06T05:57:29.872Z,95770.78
2023-01-06T05:59:58.165Z,95726.69
2023-01-06T06:02:26.683Z,95743.69
2023-01-06T06:04:55.072Z,95787.88
2023-01-06T06:07:24.856Z,95778.00
2023-01-06T06:09:53.195Z,95761.75
2023-01-06T06:12:21.509Z,95768.09
2023-01-06T06:14:49.830Z,95820.84
2023-01-06T06:17:18.128Z,95748.03
2023-01-06T06:19:46.497Z,95796.41
2023-01-06T06:22:14.854Z,95815.47
2023-01-06T06:24:44.565Z,95812.00
2023-01-06T06:27:12.867Z,95796.38
2023-01-06T06:29:41.133Z,95808.75
2023-01-06T06:32:09.396Z,95750.47
2023-01-06T06:34:37.717Z,95778.00
2023-01-06T06:37:05.954Z,95749.66
2023-01-06T06:39:34.248Z,95808.44
2023-01-06T06:42:03.963Z,95791.50
2023-01-06T06:44:32.526Z,95780.44
2023-01-06T06:47:00.829Z,95782.59
2023-01-06T06:49:31.246Z,95796.44
2023-01-06T06:51:59.629Z,95726.06
2023-01-06T06:54:27.877Z,95788.09
2023-01-06T06:56:57.166Z,95697.06
2023-01-06T06:59:26.886Z,95772.56
2023-01-06T07:01:57.767Z,95786.34
2023-01-06T07:04:26.277Z,95643.72
2023-01-06T07:06:54.878Z,95754.09
2023-01-06T07:09:23.219Z,95795.94
2023-01-06T07:11:51.471Z,95790.72
2023-01-06T07:14:19.690Z,95806.09
2023-01-06T07:16:49.405Z,95801.63
2023-01-06T07:19:17.793Z,95759.34
2023-01-06T07:21:46.118Z,95735.69
2023-01-06T07:24:14.415Z,95802.50
2023-01-06T07:26:42.711Z,95783.44
2023-01-06T07:29:11.112Z,95728.72
2023-01-06T07:31:39.496Z,95756.66
2023-01-06T07:34:09.282Z,95826.00
2023-01-06T07:36:37.662Z,95824.44
2023-01-06T07:39:06.096Z,95830.88
2023-01-06T07:41:34.377Z,95855.50
2023-01-06T07:44:02.654Z,95854.03
2023-01-06T07:46:31.037Z,95850.91
2023-01-06T07:48:59.455Z,95852.13
2023-01-06T07:51:29.236Z,95837.13
2023-01-06T07:53:57.578Z,95830.44
2023-01-06T07:56:25.937Z,95813.16
2023-01-06T07:58:55.173Z,95855.28
2023-01-06T08:01:23.579Z,95838.25
2023-01-06T08:03:51.935Z,95829.31
2023-01-06T08:06:20.215Z,95808.88
2023-01-06T08:08:49.912Z,95853.09
2023-01-06T08:11:18.200Z,95841.34
2023-01-06T08:13:46.602Z,95788.47
2023-01-06T08:16:15.359Z,95805.75
2023-01-06T08:18:43.848Z,95847.31
2023-01-06T08:21:12.761Z,95839.16
2023-01-06T08:23:41.538Z,95838.59
2023-01-06T08:26:13.773Z,95846.97
2023-01-06T08:28:42.618Z,95825.63
2023-01-06T08:31:12.326Z,95850.13
2023-01-06T08:33:41.429Z,95850.28
2023-01-06T08:36:13.025Z,95830.66
2023-01-06T08:38:41.407Z,95853.75
2023-01-06T08:41:11.608Z,95844.06
2023-01-06T08:43:41.933Z,95838.88
2023-01-06T08:46:13.568Z,95842.97
2023-01-06T08:48:42.028Z,95843.00
2023-01-06T08:51:13.747Z,95800.84
2023-01-06T08:53:42.116Z,95831.41
2023-01-06T08:56:14.852Z,95802.97
2023-01-06T08:58:43.267Z,95825.06
2023-01-06T09:01:17.694Z,95839.22
2023-01-06T09:03:46.119Z,95835.53
2023-01-06T09:06:14.647Z,95789.97
2023-01-06T09:08:42.922Z,95822.84
2023-01-06T09:11:13.628Z,95828.56
2023-01-06T09:13:43.776Z,95819.88
2023-01-06T09:16:13.591Z,95808.72
2023-01-06T09:18:47.587Z,95811.75
2023-01-06T09:21:15.949Z,95806.63
2023-01-06T09:23:44.221Z,95786.72
2023-01-06T09:26:12.934Z,95804.50
2023-01-06T09:28:42.666Z,95779.13
2023-01-06T09:31:11.760Z,95732.34
2023-01-06T09:33:41.621Z,95795.97
2023-01-06T09:36:10.109Z,95794.38
2023-01-06T09:38:38.478Z,95723.00
2023-01-06T09:41:23.974Z,95794.53
2023-01-06T09:43:58.556Z,95767.31
2023-01-06T09:46:32.060Z,95764.28
2023-01-06T09:49:08.455Z,95761.91
2023-01-06T09:51:38.018Z,95757.38
2023-01-06T09:54:16.626Z,95764.13
2023-01-06T09:56:48.466Z,95758.59
2023-01-06T09:59:25.119Z,95753.53
2023-01-06T10:01:55.337Z,95747.63
2023-01-06T10:04:27.770Z,95697.22
2023-01-06T10:07:07.218Z,95727.63
2023-01-06T10:09:44.579Z,95667.47
2023-01-06T10:12:24.527Z,95727.81
2023-01-06T10:15:04.934Z,95701.19
2023-01-06T10:17:54.904Z,95719.59
2023-01-06T10:20:39.775Z,95704.91
2023-01-06T10:23:25.339Z,95708.81
2023-01-06T10:25:56.473Z,95699.59
2023-01-06T10:28:30.562Z,95660.56
2023-01-06T10:31:05.894Z,95689.88
2023-01-06T10:33:38.795Z,95682.03
2023-01-06T10:36:13.179Z,95686.97
2023-01-06T10:38:45.152Z,95643.97
2023-01-06T10:41:21.408Z,95681.47
2023-01-06T10:43:49.780Z,95674.84
2023-01-06T10:46:19.797Z,95676.69
2023-01-06T10:48:50.601Z,95648.31
2023-01-06T10:51:34.883Z,95666.34
2023-01-06T10:54:07.934Z,95664.44
2023-01-06T10:56:38.181Z,95654.50
2023-01-06T10:59:11.663Z,95653.72
2023-01-06T11:01:51.852Z,95644.28
2023-01-06T11:04:21.671Z,95643.25
2023-01-06T11:06:52.504Z,95641.25
2023-01-06T11:09:28.323Z,95641.91
2023-01-06T11:11:58.766Z,95637.00
2023-01-06T11:14:31.067Z,95637.59
2023-01-06T11:17:03.807Z,95624.59
2023-01-06T11:19:38.334Z,95644.03
2023-01-06T11:22:07.810Z,95590.53
2023-01-06T11:24:51.468Z,95636.41
2023-01-06T11:27:19.696Z,95636.75
2023-01-06T11:29:49.555Z,95583.53
2023-01-06T11:32:22.870Z,95640.31
2023-01-06T11:34:55.663Z,95634.25
2023-01-06T11:37:35.035Z,95627.13
2023-01-06T11:40:11.438Z,95522.41
2023-01-06T11:45:32.135Z,95626.31
2023-01-06T11:48:02.090Z,95629.25
2023-01-06T11:50:30.596Z,95625.41
2023-01-06T11:53:03.860Z,95619.31
2023-01-06T11:55:32.176Z,95616.34
2023-01-06T11:58:05.502Z,95604.16
2023-01-06T12:00:43.525Z,95599.19
2023-01-06T12:03:23.185Z,95606.00
2023-01-06T12:05:58.019Z,95607.19
2023-01-06T12:08:31.876Z,95604.31
2023-01-06T12:13:44.264Z,95609.31
2023-01-06T12:16:23.687Z,95612.94
2023-01-06T12:18:54.251Z,95608.88
2023-01-06T12:21:29.050Z,95613.78
2023-01-06T12:24:00.415Z,95619.13
2023-01-06T12:26:29.509Z,95615.00
2023-01-06T12:29:00.165Z,95616.31
2023-01-06T12:31:36.587Z,95615.88
2023-01-06T12:34:12.185Z,95611.50
2023-01-06T12:36:46.513Z,95607.69
2023-01-06T12:39:21.968Z,95611.25
2023-01-06T12:41:54.765Z,95611.31
2023-01-06T12:44:40.183Z,95610.81
2023-01-06T12:47:16.553Z,95614.19
2023-01-06T12:49:51.971Z,95608.50
2023-01-06T12:52:26.431Z,95612.88
2023-01-06T12:54:57.610Z,95619.41
2023-01-06T12:57:39.605Z,95613.44
2023-01-06T13:00:43.313Z,95622.00
2023-01-06T13:03:50.094Z,95619.75
2023-01-06T13:06:33.180Z,95625.19
2023-01-06T13:09:14.922Z,95632.50
2023-01-06T13:12:06.322Z,95630.53
2023-01-06T13:14:42.664Z,95627.13
2023-01-06T13:17:19.491Z,95630.22
2023-01-06T13:19:52.654Z,95621.66
2023-01-06T13:22:34.276Z,95596.47
2023-01-06T13:25:28.198Z,95636.13
2023-01-06T13:28:08.632Z,95637.59
2023-01-06T13:31:10.073Z,95639.22
2023-01-06T13:33:58.098Z,95645.81
2023-01-06T13:36:44.251Z,95640.31
2023-01-06T13:39:17.996Z,95643.47
2023-01-06T13:41:50.497Z,95643.13
2023-01-06T13:44:22.402Z,95652.72
2023-01-06T13:46:53.934Z,95650.13
2023-01-06T13:49:23.200Z,95652.03
2023-01-06T13:51:52.094Z,95638.44
2023-01-06T13:54:57.119Z,95642.72
2023-01-06T13:57:31.872Z,95650.94
2023-01-06T14:00:24.987Z,95656.75
2023-01-06T14:05:56.474Z,95670.38
2023-01-06T14:08:28.085Z,95661.81
2023-01-06T14:11:03.233Z,95677.66
2023-01-06T14:13:36.474Z,95674.59
2023-01-06T14:16:10.494Z,95660.03
2023-01-06T14:18:42.501Z,95680.06
2023-01-06T14:21:27.724Z,95690.50
2023-01-06T14:24:00.556Z,95671.63
2023-01-06T14:26:54.811Z,95688.78
2023-01-06T14:30:00.313Z,95687.78
2023-01-06T14:33:14.457Z,95697.50
2023-01-06T14:35:48.453Z,95701.03
2023-01-06T14:38:25.495Z,95694.63
2023-01-06T14:40:59.055Z,95694.97
2023-01-06T14:43:42.128Z,95696.75
2023-01-06T14:46:18.786Z,95677.72
2023-01-06T14:48:53.278Z,95711.91
2023-01-06T14:51:23.826Z,95714.88
2023-01-06T14:54:00.216Z,95720.47
2023-01-06T14:56:34.570Z,95719.63
2023-01-06T14:59:10.882Z,95724.97
2023-01-06T15:01:40.629Z,95738.09
2023-01-06T15:04:23.235Z,95741.31
2023-01-06T15:07:02.268Z,95739.09
2023-01-06T15:09:30.809Z,95740.75
2023-01-06T15:11:59.190Z,95748.59
2023-01-06T15:14:29.703Z,95745.47
2023-01-06T15:17:00.501Z,95738.75
2023-01-06T15:19:29.263Z,95735.22
2023-01-06T15:21:58.627Z,95737.19
2023-01-06T15:24:32.362Z,95749.44
2023-01-06T15:27:06.465Z,95759.25
2023-01-06T15:29:35.314Z,95763.94
2023-01-06T15:32:05.753Z,95768.66
2023-01-06T15:34:37.196Z,95753.69
2023-01-06T15:37:08.847Z,95773.81
2023-01-06T15:39:40.980Z,95752.94
2023-01-06T15:42:10.709Z,95776.28
2023-01-06T15:44:40.349Z,95789.25
2023-01-06T15:47:20.200Z,95781.25
2023-01-06T15:49:53.593Z,95783.63
2023-01-06T15:52:27.230Z,95786.78
2023-01-06T15:54:59.828Z,95785.78
2023-01-06T15:57:32.038Z,95777.47
2023-01-06T16:00:02.940Z,95727.81
2023-01-06T16:02:33.400Z,95774.66
2023-01-06T16:05:02.608Z,95814.56
2023-01-06T16:07:43.327Z,95810.34
2023-01-06T16:10:32.389Z,95809.84
2023-01-06T16:13:18.321Z,95807.19
2023-01-06T16:15:48.189Z,95822.16
2023-01-06T16:18:19.050Z,95822.78
2023-01-06T16:20:47.389Z,95835.00
2023-01-06T16:23:33.903Z,95767.44
2023-01-06T16:26:13.890Z,95834.81
2023-01-06T16:28:45.918Z,95843.28
2023-01-06T16:31:16.525Z,95837.13
2023-01-06T16:33:47.063Z,95842.72
2023-01-06T16:36:17.259Z,95839.75
2023-01-06T16:38:45.904Z,95843.53
2023-01-06T16:41:18.644Z,95846.09
2023-01-06T16:43:47.281Z,95866.09
2023-01-06T16:46:21.978Z,95876.06
2023-01-06T16:48:53.323Z,95820.13
2023-01-06T16:51:22.813Z,95881.69
2023-01-06T16:53:51.058Z,95895.06
2023-01-06T16:56:23.519Z,95893.75
2023-01-06T16:58:51.897Z,95904.59
2023-01-06T17:01:22.501Z,95904.44
2023-01-06T17:03:54.558Z,95907.94
2023-01-06T17:06:24.457Z,95885.63
2023-01-06T17:08:56.157Z,95909.41
2023-01-06T17:11:29.535Z,95880.03
2023-01-06T17:14:00.887Z,95899.41
2023-01-06T17:16:34.329Z,95911.38
2023-01-06T17:19:04.311Z,95912.72
2023-01-06T17:21:36.791Z,95909.22
2023-01-06T17:24:12.314Z,95912.53
2023-01-06T17:26:43.693Z,95894.16
2023-01-06T17:29:14.894Z,95914.44
2023-01-06T17:31:46.914Z,95906.66
2023-01-06T17:34:18.908Z,95931.34
2023-01-06T17:36:48.827Z,95924.94
2023-01-06T17:39:22.637Z,95937.44
2023-01-06T17:41:59.868Z,95932.72
2023-01-06T17:44:36.818Z,95936.44
2023-01-06T17:47:13.282Z,95938.28
2023-01-06T17:49:41.560Z,95915.06
2023-01-06T17:52:17.705Z,95943.63
2023-01-06T17:55:11.222Z,95944.47
2023-01-06T17:57:46.981Z,95953.09
2023-01-06T18:00:23.572Z,95962.97
2023-01-06T18:02:56.597Z,95962.09
2023-01-06T18:06:22.044Z,95967.91
2023-01-06T18:08:54.740Z,95959.13
2023-01-06T18:11:33.037Z,95954.13
2023-01-06T18:14:18.588Z,95967.53
2023-01-06T18:16:48.354Z,95959.19
2023-01-06T18:19:28.515Z,95971.22
2023-01-06T18:21:57.009Z,95961.84
2023-01-06T18:24:30.872Z,95979.59
2023-01-06T18:27:00.620Z,95966.81
2023-01-06T18:29:36.895Z,95980.06
2023-01-06T18:32:33.623Z,95983.31
2023-01-06T18:35:03.471Z,95983.81
2023-01-06T18:37:34.626Z,95978.53
2023-01-06T18:40:04.726Z,95976.19
2023-01-06T18:42:36.233Z,95979.84
2023-01-06T18:45:19.317Z,95979.00
2023-01-06T18:47:52.267Z,95988.06
2023-01-06T18:50:33.249Z,95979.00
2023-01-06T18:53:05.740Z,95985.84
2023-01-06T18:55:39.715Z,95987.38
2023-01-06T18:58:26.825Z,95986.78
2023-01-06T19:00:58.780Z,95995.31
2023-01-06T19:03:38.764Z,95990.25
2023-01-06T19:06:34.364Z,95991.91
2023-01-06T19:09:10.305Z,95983.88
2023-01-06T19:11:38.700Z,95918.53
2023-01-06T19:14:14.669Z,95987.63
2023-01-06T19:16:50.674Z,95990.59
2023-01-06T19:19:29.196Z,95992.44
2023-01-06T19:22:07.978Z,95983.19
2023-01-06T19:24:46.455Z,96007.09
2023-01-06T19:27:39.239Z,95996.56
2023-01-06T19:30:42.556Z,95990.97
2023-01-06T19:33:38.226Z,95957.50
2023-01-06T19:36:42.671Z,96004.91
2023-01-06T19:39:33.984Z,96010.94
2023-01-06T19:42:17.825Z,96015.38
2023-01-06T19:44:48.303Z,96014.94
2023-01-06T19:47:20.928Z,96014.28
2023-01-06T19:49:53.371Z,96020.50
2023-01-06T19:52:30.503Z,96019.78
2023-01-06T19:55:12.980Z,95956.47
2023-01-06T19:57:44.844Z,96025.72
2023-01-06T20:00:25.394Z,96040.75
2023-01-06T20:02:57.670Z,96035.16
2023-01-06T20:05:29.035Z,96013.16
2023-01-06T20:07:57.393Z,96026.22
2023-01-06T20:10:25.729Z,96029.41
2023-01-06T20:12:54.061Z,95995.03
2023-01-06T20:15:22.321Z,96026.53
2023-01-06T20:17:50.686Z,96025.19
2023-01-06T20:20:19.093Z,96036.63
2023-01-06T20:22:48.866Z,96039.38
2023-01-06T20:25:17.563Z,96034.75
2023-01-06T20:27:45.852Z,96039.31
2023-01-06T20:30:14.290Z,96035.00
2023-01-06T20:32:42.936Z,96039.59
2023-01-06T20:35:12.580Z,96033.81
2023-01-06T20:37:40.906Z,95985.75
2023-01-06T20:40:11.715Z,96045.75
2023-01-06T20:42:40.047Z,96044.78
2023-01-06T20:45:09.214Z,96049.16
2023-01-06T20:47:37.558Z,96046.47
2023-01-06T20:50:07.660Z,96033.41
2023-01-06T20:52:36.381Z,96069.09
2023-01-06T20:55:04.856Z,96067.81
2023-01-06T20:57:34.644Z,96065.22
2023-01-06T21:00:02.949Z,96060.19
2023-01-06T21:02:31.299Z,96064.81
2023-01-06T21:04:59.633Z,96073.59
2023-01-06T21:07:27.903Z,96081.66
2023-01-06T21:09:56.221Z,96071.66
2023-01-06T21:12:24.858Z,96093.19
2023-01-06T21:14:54.537Z,96090.41
2023-01-06T21:17:23.010Z,96097.31
2023-01-06T21:19:51.353Z,96110.84
2023-01-06T21:22:19.618Z,96113.69
2023-01-06T21:24:47.960Z,96115.88
2023-01-06T21:27:16.245Z,96120.56
2023-01-06T21:29:44.647Z,96108.28
2023-01-06T21:32:14.419Z,96120.97
2023-01-06T21:34:42.771Z,96020.97
2023-01-06T21:37:11.088Z,96120.56
2023-01-06T21:39:39.413Z,96127.59
2023-01-06T21:42:25.074Z,96080.25
2023-01-06T21:44:53.338Z,96127.00
2023-01-06T21:47:23.066Z,96134.00
2023-01-06T21:49:51.470Z,96126.88
2023-01-06T21:52:19.876Z,96082.50
2023-01-06T21:54:48.229Z,96127.94
2023-01-06T21:57:16.640Z,96053.28
2023-01-06T21:59:45.420Z,96134.13
2023-01-06T22:02:15.920Z,96134.25
2023-01-06T22:04:45.694Z,95706.91
2023-01-06T22:07:15.185Z,96121.41
2023-01-06T22:09:45.830Z,96100.94
2023-01-06T22:12:17.085Z,96142.75
2023-01-06T22:14:45.816Z,96140.97
2023-01-06T22:17:14.573Z,96135.84
2023-01-06T22:19:46.335Z,96055.91
2023-01-06T22:22:15.330Z,96143.84
2023-01-06T22:24:43.655Z,96069.19
2023-01-06T22:27:11.865Z,96147.38
2023-01-06T22:29:40.209Z,96139.78
2023-01-06T22:32:08.494Z,96144.75
2023-01-06T22:34:37.426Z,96150.72
2023-01-06T22:37:07.199Z,96131.16
2023-01-06T22:39:35.442Z,96145.06
2023-01-06T22:42:13.001Z,96136.22
2023-01-06T22:44:41.341Z,96050.88
2023-01-06T22:47:09.604Z,96087.81
2023-01-06T22:49:37.878Z,96131.97
2023-01-06T22:52:07.705Z,96125.31
2023-01-06T22:54:35.959Z,96127.56
2023-01-06T22:57:04.224Z,96111.84
2023-01-06T22:59:32.577Z,96128.44
2023-01-06T23:02:01.084Z,96125.56
2023-01-06T23:04:29.421Z,96122.59
2023-01-06T23:06:57.748Z,96121.59
2023-01-06T23:09:27.606Z,96124.66
2023-01-06T23:11:55.991Z,96125.94
2023-01-06T23:14:24.340Z,96120.19
2023-01-06T23:16:52.537Z,96061.34
2023-01-06T23:19:20.859Z,96132.84
2023-01-06T23:21:49.158Z,96125.63
2023-01-06T23:24:17.433Z,96128.41
2023-01-06T23:26:48.695Z,96096.47
2023-01-06T23:29:17.025Z,96132.22
2023-01-06T23:31:46.842Z,96122.75
2023-01-06T23:34:18.083Z,96127.53
2023-01-06T23:36:46.943Z,96121.41
2023-01-06T23:39:17.024Z,96122.56
2023-01-06T23:41:46.762Z,96120.06
2023-01-06T23:44:16.784Z,96062.00
2023-01-06T23:46:46.019Z,96109.53
2023-01-06T23:49:15.951Z,96111.28
2023-01-06T23:51:44.884Z,96085.06
2023-01-06T23:54:15.300Z,96109.78
2023-01-06T23:56:43.618Z,96107.75
2023-01-06T23:59:13.843Z,96112.66
